sensor_id;sensor_type;location;lat;lon;timestamp;P1;durP1;ratioP1;P2;durP2;ratioP2
17235;SDS011;8734;59.272;17.780;2022-09-27T00:02:18;14.70;;;5.10;;
17235;SDS011;8734;59.272;17.780;2022-09-27T00:04:47;10.60;;;5.27;;
17235;SDS011;8734;59.272;17.780;2022-09-27T00:07:15;9.40;;;5.63;;
17235;SDS011;8734;59.272;17.780;2022-09-27T00:09:44;10.03;;;5.00;;
17235;SDS011;8734;59.272;17.780;2022-09-27T00:12:14;14.30;;;5.47;;
17235;SDS011;8734;59.272;17.780;2022-09-27T00:14:42;12.67;;;4.87;;
17235;SDS011;8734;59.272;17.780;2022-09-27T00:17:11;13.50;;;4.67;;
17235;SDS011;8734;59.272;17.780;2022-09-27T00:19:39;10.90;;;4.50;;
17235;SDS011;8734;59.272;17.780;2022-09-27T00:22:08;19.80;;;4.40;;
17235;SDS011;8734;59.272;17.780;2022-09-27T00:24:36;10.20;;;3.33;;
17235;SDS011;8734;59.272;17.780;2022-09-27T00:27:04;12.90;;;3.00;;
17235;SDS011;8734;59.272;17.780;2022-09-27T00:29:34;7.90;;;3.00;;
17235;SDS011;8734;59.272;17.780;2022-09-27T00:32:04;10.03;;;3.30;;
17235;SDS011;8734;59.272;17.780;2022-09-27T00:34:32;5.73;;;3.10;;
17235;SDS011;8734;59.272;17.780;2022-09-27T00:37:01;11.57;;;2.93;;
17235;SDS011;8734;59.272;17.780;2022-09-27T00:39:29;7.57;;;2.50;;
17235;SDS011;8734;59.272;17.780;2022-09-27T00:41:58;12.13;;;2.57;;
17235;SDS011;8734;59.272;17.780;2022-09-27T00:47:44;6.83;;;2.17;;
17235;SDS011;8734;59.272;17.780;2022-09-27T00:50:24;4.83;;;2.17;;
17235;SDS011;8734;59.272;17.780;2022-09-27T00:53:02;4.63;;;2.17;;
17235;SDS011;8734;59.272;17.780;2022-09-27T00:55:37;9.60;;;2.60;;
17235;SDS011;8734;59.272;17.780;2022-09-27T00:58:09;5.53;;;2.03;;
17235;SDS011;8734;59.272;17.780;2022-09-27T01:00:41;7.90;;;1.97;;
17235;SDS011;8734;59.272;17.780;2022-09-27T01:03:14;3.50;;;1.90;;
17235;SDS011;8734;59.272;17.780;2022-09-27T01:05:50;9.47;;;1.90;;
17235;SDS011;8734;59.272;17.780;2022-09-27T01:08:19;8.70;;;2.20;;
17235;SDS011;8734;59.272;17.780;2022-09-27T01:10:51;4.13;;;1.97;;
17235;SDS011;8734;59.272;17.780;2022-09-27T01:13:33;8.47;;;2.20;;
17235;SDS011;8734;59.272;17.780;2022-09-27T01:16:08;11.63;;;3.60;;
17235;SDS011;8734;59.272;17.780;2022-09-27T01:18:47;6.27;;;1.80;;
17235;SDS011;8734;59.272;17.780;2022-09-27T01:27:40;6.77;;;1.90;;
17235;SDS011;8734;59.272;17.780;2022-09-27T01:30:26;6.00;;;2.13;;
17235;SDS011;8734;59.272;17.780;2022-09-27T01:33:04;9.50;;;2.40;;
17235;SDS011;8734;59.272;17.780;2022-09-27T01:35:44;8.53;;;2.00;;
17235;SDS011;8734;59.272;17.780;2022-09-27T01:38:22;8.17;;;2.47;;
17235;SDS011;8734;59.272;17.780;2022-09-27T01:40:57;4.40;;;2.07;;
17235;SDS011;8734;59.272;17.780;2022-09-27T01:43:31;9.73;;;2.73;;
17235;SDS011;8734;59.272;17.780;2022-09-27T01:46:07;6.43;;;2.10;;
17235;SDS011;8734;59.272;17.780;2022-09-27T01:48:40;7.13;;;2.60;;
17235;SDS011;8734;59.272;17.780;2022-09-27T01:51:13;8.90;;;2.90;;
17235;SDS011;8734;59.272;17.780;2022-09-27T01:53:45;9.67;;;2.77;;
17235;SDS011;8734;59.272;17.780;2022-09-27T01:56:17;10.97;;;3.27;;
17235;SDS011;8734;59.272;17.780;2022-09-27T01:58:51;11.67;;;3.50;;
17235;SDS011;8734;59.272;17.780;2022-09-27T02:01:25;10.97;;;3.37;;
17235;SDS011;8734;59.272;17.780;2022-09-27T02:03:56;7.23;;;3.37;;
17235;SDS011;8734;59.272;17.780;2022-09-27T02:06:28;6.33;;;3.30;;
17235;SDS011;8734;59.272;17.780;2022-09-27T02:09:01;8.03;;;3.70;;
17235;SDS011;8734;59.272;17.780;2022-09-27T02:11:33;6.87;;;3.60;;
17235;SDS011;8734;59.272;17.780;2022-09-27T02:14:07;11.77;;;3.90;;
17235;SDS011;8734;59.272;17.780;2022-09-27T02:16:45;18.60;;;3.93;;
17235;SDS011;8734;59.272;17.780;2022-09-27T02:19:19;16.10;;;3.67;;
17235;SDS011;8734;59.272;17.780;2022-09-27T02:21:54;14.70;;;6.00;;
17235;SDS011;8734;59.272;17.780;2022-09-27T02:24:31;17.73;;;4.10;;
17235;SDS011;8734;59.272;17.780;2022-09-27T02:27:06;23.10;;;4.67;;
17235;SDS011;8734;59.272;17.780;2022-09-27T02:29:40;17.43;;;4.47;;
17235;SDS011;8734;59.272;17.780;2022-09-27T02:32:15;13.87;;;4.17;;
17235;SDS011;8734;59.272;17.780;2022-09-27T02:34:43;15.67;;;4.17;;
17235;SDS011;8734;59.272;17.780;2022-09-27T02:37:13;8.70;;;3.80;;
17235;SDS011;8734;59.272;17.780;2022-09-27T02:39:42;8.60;;;3.53;;
17235;SDS011;8734;59.272;17.780;2022-09-27T02:42:11;15.90;;;4.10;;
17235;SDS011;8734;59.272;17.780;2022-09-27T02:44:39;10.93;;;3.97;;
17235;SDS011;8734;59.272;17.780;2022-09-27T02:47:17;17.83;;;3.73;;
17235;SDS011;8734;59.272;17.780;2022-09-27T02:50:07;11.87;;;3.57;;
17235;SDS011;8734;59.272;17.780;2022-09-27T02:52:53;10.40;;;3.37;;
17235;SDS011;8734;59.272;17.780;2022-09-27T02:55:28;20.13;;;3.83;;
17235;SDS011;8734;59.272;17.780;2022-09-27T02:58:07;10.47;;;3.40;;
17235;SDS011;8734;59.272;17.780;2022-09-27T03:00:46;9.20;;;3.07;;
17235;SDS011;8734;59.272;17.780;2022-09-27T03:03:23;14.70;;;3.20;;
17235;SDS011;8734;59.272;17.780;2022-09-27T03:06:01;14.60;;;3.70;;
17235;SDS011;8734;59.272;17.780;2022-09-27T03:08:32;8.73;;;3.33;;
17235;SDS011;8734;59.272;17.780;2022-09-27T03:11:01;9.93;;;3.23;;
17235;SDS011;8734;59.272;17.780;2022-09-27T03:13:29;11.17;;;2.70;;
17235;SDS011;8734;59.272;17.780;2022-09-27T03:16:20;9.07;;;3.23;;
17235;SDS011;8734;59.272;17.780;2022-09-27T03:18:50;16.27;;;3.13;;
17235;SDS011;8734;59.272;17.780;2022-09-27T03:21:18;6.60;;;2.90;;
17235;SDS011;8734;59.272;17.780;2022-09-27T03:23:46;12.83;;;2.90;;
17235;SDS011;8734;59.272;17.780;2022-09-27T03:26:15;11.67;;;2.90;;
17235;SDS011;8734;59.272;17.780;2022-09-27T03:28:44;8.47;;;2.60;;
17235;SDS011;8734;59.272;17.780;2022-09-27T03:31:12;14.87;;;2.63;;
17235;SDS011;8734;59.272;17.780;2022-09-27T03:33:41;4.93;;;2.83;;
17235;SDS011;8734;59.272;17.780;2022-09-27T03:36:10;5.17;;;2.47;;
17235;SDS011;8734;59.272;17.780;2022-09-27T03:38:39;7.70;;;2.57;;
17235;SDS011;8734;59.272;17.780;2022-09-27T03:41:07;8.77;;;2.33;;
17235;SDS011;8734;59.272;17.780;2022-09-27T03:43:36;8.30;;;2.57;;
17235;SDS011;8734;59.272;17.780;2022-09-27T03:46:04;8.33;;;3.07;;
17235;SDS011;8734;59.272;17.780;2022-09-27T03:48:33;5.97;;;2.67;;
17235;SDS011;8734;59.272;17.780;2022-09-27T03:51:01;6.90;;;2.33;;
17235;SDS011;8734;59.272;17.780;2022-09-27T03:53:31;20.60;;;2.50;;
17235;SDS011;8734;59.272;17.780;2022-09-27T03:56:00;7.67;;;2.23;;
17235;SDS011;8734;59.272;17.780;2022-09-27T03:58:29;10.77;;;2.33;;
17235;SDS011;8734;59.272;17.780;2022-09-27T04:00:57;4.30;;;2.07;;
17235;SDS011;8734;59.272;17.780;2022-09-27T04:03:28;5.23;;;2.30;;
17235;SDS011;8734;59.272;17.780;2022-09-27T04:05:57;6.70;;;2.33;;
17235;SDS011;8734;59.272;17.780;2022-09-27T04:08:26;5.13;;;2.30;;
17235;SDS011;8734;59.272;17.780;2022-09-27T04:10:56;8.10;;;1.93;;
17235;SDS011;8734;59.272;17.780;2022-09-27T04:13:25;7.13;;;2.10;;
17235;SDS011;8734;59.272;17.780;2022-09-27T04:15:54;6.63;;;2.20;;
17235;SDS011;8734;59.272;17.780;2022-09-27T04:18:22;8.13;;;2.10;;
17235;SDS011;8734;59.272;17.780;2022-09-27T04:20:51;7.10;;;2.00;;
17235;SDS011;8734;59.272;17.780;2022-09-27T04:23:19;3.40;;;1.70;;
17235;SDS011;8734;59.272;17.780;2022-09-27T04:25:55;6.50;;;2.37;;
17235;SDS011;8734;59.272;17.780;2022-09-27T04:28:24;8.33;;;1.87;;
17235;SDS011;8734;59.272;17.780;2022-09-27T04:30:53;5.50;;;1.90;;
17235;SDS011;8734;59.272;17.780;2022-09-27T04:33:21;9.03;;;1.83;;
17235;SDS011;8734;59.272;17.780;2022-09-27T04:35:50;6.93;;;1.97;;
17235;SDS011;8734;59.272;17.780;2022-09-27T04:38:36;9.33;;;1.97;;
17235;SDS011;8734;59.272;17.780;2022-09-27T04:41:06;6.70;;;1.87;;
17235;SDS011;8734;59.272;17.780;2022-09-27T04:43:35;8.83;;;1.97;;
17235;SDS011;8734;59.272;17.780;2022-09-27T04:46:04;6.20;;;1.97;;
17235;SDS011;8734;59.272;17.780;2022-09-27T04:48:32;9.67;;;1.93;;
17235;SDS011;8734;59.272;17.780;2022-09-27T04:51:01;5.13;;;1.83;;
17235;SDS011;8734;59.272;17.780;2022-09-27T04:53:30;13.00;;;2.10;;
17235;SDS011;8734;59.272;17.780;2022-09-27T04:55:58;12.30;;;2.53;;
17235;SDS011;8734;59.272;17.780;2022-09-27T04:58:33;9.90;;;1.77;;
17235;SDS011;8734;59.272;17.780;2022-09-27T05:01:02;9.27;;;2.27;;
17235;SDS011;8734;59.272;17.780;2022-09-27T05:03:31;5.43;;;2.07;;
17235;SDS011;8734;59.272;17.780;2022-09-27T05:05:59;8.30;;;2.03;;
17235;SDS011;8734;59.272;17.780;2022-09-27T05:08:28;7.27;;;2.20;;
17235;SDS011;8734;59.272;17.780;2022-09-27T05:10:56;11.83;;;2.20;;
17235;SDS011;8734;59.272;17.780;2022-09-27T05:13:26;9.07;;;2.07;;
17235;SDS011;8734;59.272;17.780;2022-09-27T05:16:00;10.83;;;3.03;;
17235;SDS011;8734;59.272;17.780;2022-09-27T05:18:29;12.20;;;2.20;;
17235;SDS011;8734;59.272;17.780;2022-09-27T05:20:59;6.77;;;2.60;;
17235;SDS011;8734;59.272;17.780;2022-09-27T05:23:27;5.90;;;2.23;;
17235;SDS011;8734;59.272;17.780;2022-09-27T05:25:55;7.10;;;2.43;;
17235;SDS011;8734;59.272;17.780;2022-09-27T05:28:24;18.10;;;3.27;;
17235;SDS011;8734;59.272;17.780;2022-09-27T05:30:53;5.97;;;2.83;;
17235;SDS011;8734;59.272;17.780;2022-09-27T05:33:23;8.80;;;3.10;;
17235;SDS011;8734;59.272;17.780;2022-09-27T05:35:51;7.53;;;2.70;;
17235;SDS011;8734;59.272;17.780;2022-09-27T05:38:21;16.17;;;3.83;;
17235;SDS011;8734;59.272;17.780;2022-09-27T05:40:50;11.43;;;3.27;;
17235;SDS011;8734;59.272;17.780;2022-09-27T05:43:19;8.20;;;3.60;;
17235;SDS011;8734;59.272;17.780;2022-09-27T05:45:47;12.37;;;3.40;;
17235;SDS011;8734;59.272;17.780;2022-09-27T05:48:16;7.33;;;3.43;;
17235;SDS011;8734;59.272;17.780;2022-09-27T05:50:46;10.37;;;2.93;;
17235;SDS011;8734;59.272;17.780;2022-09-27T05:53:14;11.07;;;2.77;;
17235;SDS011;8734;59.272;17.780;2022-09-27T05:55:43;7.63;;;3.30;;
17235;SDS011;8734;59.272;17.780;2022-09-27T05:58:11;7.37;;;3.03;;
17235;SDS011;8734;59.272;17.780;2022-09-27T06:00:41;9.33;;;3.27;;
17235;SDS011;8734;59.272;17.780;2022-09-27T06:03:11;7.40;;;2.73;;
17235;SDS011;8734;59.272;17.780;2022-09-27T06:05:40;12.67;;;2.97;;
17235;SDS011;8734;59.272;17.780;2022-09-27T06:08:16;8.07;;;2.97;;
17235;SDS011;8734;59.272;17.780;2022-09-27T06:10:45;14.80;;;2.90;;
17235;SDS011;8734;59.272;17.780;2022-09-27T06:13:14;7.50;;;2.87;;
17235;SDS011;8734;59.272;17.780;2022-09-27T06:15:44;6.03;;;2.80;;
17235;SDS011;8734;59.272;17.780;2022-09-27T06:18:14;9.30;;;2.63;;
17235;SDS011;8734;59.272;17.780;2022-09-27T06:20:44;9.47;;;2.73;;
17235;SDS011;8734;59.272;17.780;2022-09-27T06:23:13;7.50;;;2.73;;
17235;SDS011;8734;59.272;17.780;2022-09-27T06:25:44;7.00;;;3.27;;
17235;SDS011;8734;59.272;17.780;2022-09-27T06:28:16;6.53;;;2.37;;
17235;SDS011;8734;59.272;17.780;2022-09-27T06:30:46;7.00;;;2.70;;
17235;SDS011;8734;59.272;17.780;2022-09-27T06:33:16;8.50;;;2.53;;
17235;SDS011;8734;59.272;17.780;2022-09-27T06:35:47;19.30;;;2.57;;
17235;SDS011;8734;59.272;17.780;2022-09-27T06:38:17;9.70;;;2.47;;
17235;SDS011;8734;59.272;17.780;2022-09-27T06:40:53;9.97;;;2.47;;
17235;SDS011;8734;59.272;17.780;2022-09-27T06:43:23;6.03;;;2.27;;
17235;SDS011;8734;59.272;17.780;2022-09-27T06:45:52;7.30;;;2.10;;
17235;SDS011;8734;59.272;17.780;2022-09-27T06:48:21;5.30;;;2.20;;
17235;SDS011;8734;59.272;17.780;2022-09-27T06:50:50;7.20;;;2.50;;
17235;SDS011;8734;59.272;17.780;2022-09-27T06:53:24;7.40;;;2.30;;
17235;SDS011;8734;59.272;17.780;2022-09-27T06:55:56;14.10;;;2.00;;
17235;SDS011;8734;59.272;17.780;2022-09-27T06:58:25;2.60;;;1.57;;
17235;SDS011;8734;59.272;17.780;2022-09-27T07:01:11;5.60;;;1.90;;
17235;SDS011;8734;59.272;17.780;2022-09-27T07:03:40;10.60;;;2.40;;
17235;SDS011;8734;59.272;17.780;2022-09-27T07:06:12;9.90;;;2.20;;
17235;SDS011;8734;59.272;17.780;2022-09-27T07:08:47;6.53;;;1.90;;
17235;SDS011;8734;59.272;17.780;2022-09-27T07:11:17;9.60;;;1.90;;
17235;SDS011;8734;59.272;17.780;2022-09-27T07:13:45;7.33;;;2.00;;
17235;SDS011;8734;59.272;17.780;2022-09-27T07:16:14;5.93;;;1.50;;
17235;SDS011;8734;59.272;17.780;2022-09-27T07:18:42;9.47;;;2.13;;
17235;SDS011;8734;59.272;17.780;2022-09-27T07:21:13;5.63;;;2.20;;
17235;SDS011;8734;59.272;17.780;2022-09-27T07:23:42;6.60;;;2.27;;
17235;SDS011;8734;59.272;17.780;2022-09-27T07:26:13;3.00;;;1.50;;
17235;SDS011;8734;59.272;17.780;2022-09-27T07:28:42;8.63;;;1.77;;
17235;SDS011;8734;59.272;17.780;2022-09-27T07:31:11;3.50;;;1.30;;
17235;SDS011;8734;59.272;17.780;2022-09-27T07:33:40;3.23;;;1.37;;
17235;SDS011;8734;59.272;17.780;2022-09-27T07:36:09;7.13;;;1.30;;
17235;SDS011;8734;59.272;17.780;2022-09-27T07:38:38;7.20;;;1.57;;
17235;SDS011;8734;59.272;17.780;2022-09-27T07:41:07;8.37;;;1.47;;
17235;SDS011;8734;59.272;17.780;2022-09-27T07:43:39;6.60;;;1.63;;
17235;SDS011;8734;59.272;17.780;2022-09-27T07:46:07;4.03;;;1.30;;
17235;SDS011;8734;59.272;17.780;2022-09-27T07:48:36;8.40;;;1.40;;
17235;SDS011;8734;59.272;17.780;2022-09-27T07:51:05;4.03;;;1.20;;
17235;SDS011;8734;59.272;17.780;2022-09-27T07:53:36;5.90;;;1.23;;
17235;SDS011;8734;59.272;17.780;2022-09-27T07:56:06;6.67;;;1.70;;
17235;SDS011;8734;59.272;17.780;2022-09-27T07:58:35;3.90;;;1.30;;
17235;SDS011;8734;59.272;17.780;2022-09-27T08:01:05;5.63;;;1.17;;
17235;SDS011;8734;59.272;17.780;2022-09-27T08:03:33;5.20;;;1.30;;
17235;SDS011;8734;59.272;17.780;2022-09-27T08:06:02;5.67;;;1.30;;
17235;SDS011;8734;59.272;17.780;2022-09-27T08:08:30;6.50;;;1.30;;
17235;SDS011;8734;59.272;17.780;2022-09-27T08:10:59;3.83;;;1.10;;
17235;SDS011;8734;59.272;17.780;2022-09-27T08:13:27;5.63;;;1.37;;
17235;SDS011;8734;59.272;17.780;2022-09-27T08:15:59;7.90;;;1.37;;
17235;SDS011;8734;59.272;17.780;2022-09-27T08:18:30;5.97;;;1.33;;
17235;SDS011;8734;59.272;17.780;2022-09-27T08:21:01;5.13;;;1.70;;
17235;SDS011;8734;59.272;17.780;2022-09-27T08:23:30;7.17;;;1.47;;
17235;SDS011;8734;59.272;17.780;2022-09-27T08:25:58;4.73;;;1.40;;
17235;SDS011;8734;59.272;17.780;2022-09-27T08:28:27;4.43;;;1.33;;
17235;SDS011;8734;59.272;17.780;2022-09-27T08:30:57;5.57;;;1.30;;
17235;SDS011;8734;59.272;17.780;2022-09-27T08:33:26;12.60;;;1.60;;
17235;SDS011;8734;59.272;17.780;2022-09-27T08:36:00;4.77;;;1.43;;
17235;SDS011;8734;59.272;17.780;2022-09-27T08:38:29;6.73;;;1.63;;
17235;SDS011;8734;59.272;17.780;2022-09-27T08:40:58;7.43;;;1.40;;
17235;SDS011;8734;59.272;17.780;2022-09-27T08:43:34;5.50;;;1.50;;
17235;SDS011;8734;59.272;17.780;2022-09-27T08:46:14;5.13;;;1.40;;
17235;SDS011;8734;59.272;17.780;2022-09-27T08:48:53;3.17;;;1.37;;
17235;SDS011;8734;59.272;17.780;2022-09-27T08:51:29;10.43;;;1.47;;
17235;SDS011;8734;59.272;17.780;2022-09-27T08:54:00;4.23;;;1.87;;
17235;SDS011;8734;59.272;17.780;2022-09-27T08:56:33;5.00;;;1.30;;
17235;SDS011;8734;59.272;17.780;2022-09-27T08:59:03;4.80;;;1.47;;
17235;SDS011;8734;59.272;17.780;2022-09-27T09:01:41;6.43;;;1.30;;
17235;SDS011;8734;59.272;17.780;2022-09-27T09:04:13;5.87;;;1.30;;
17235;SDS011;8734;59.272;17.780;2022-09-27T09:06:46;3.83;;;1.40;;
17235;SDS011;8734;59.272;17.780;2022-09-27T09:09:29;8.30;;;1.57;;
17235;SDS011;8734;59.272;17.780;2022-09-27T09:12:07;10.67;;;1.90;;
17235;SDS011;8734;59.272;17.780;2022-09-27T09:15:12;4.63;;;1.97;;
17235;SDS011;8734;59.272;17.780;2022-09-27T09:17:51;4.37;;;1.60;;
17235;SDS011;8734;59.272;17.780;2022-09-27T09:20:36;6.30;;;1.90;;
17235;SDS011;8734;59.272;17.780;2022-09-27T09:23:32;6.07;;;2.37;;
17235;SDS011;8734;59.272;17.780;2022-09-27T09:26:11;3.77;;;2.00;;
17235;SDS011;8734;59.272;17.780;2022-09-27T09:28:50;7.03;;;2.93;;
17235;SDS011;8734;59.272;17.780;2022-09-27T09:31:26;4.20;;;2.53;;
17235;SDS011;8734;59.272;17.780;2022-09-27T09:34:04;5.63;;;2.73;;
17235;SDS011;8734;59.272;17.780;2022-09-27T09:36:37;8.43;;;3.03;;
17235;SDS011;8734;59.272;17.780;2022-09-27T09:39:14;9.00;;;3.13;;
17235;SDS011;8734;59.272;17.780;2022-09-27T09:41:50;7.20;;;3.50;;
17235;SDS011;8734;59.272;17.780;2022-09-27T09:44:33;5.37;;;2.90;;
17235;SDS011;8734;59.272;17.780;2022-09-27T09:47:12;10.93;;;3.70;;
17235;SDS011;8734;59.272;17.780;2022-09-27T09:49:47;9.13;;;3.90;;
17235;SDS011;8734;59.272;17.780;2022-09-27T09:52:22;8.93;;;3.90;;
17235;SDS011;8734;59.272;17.780;2022-09-27T09:55:11;9.10;;;4.00;;
17235;SDS011;8734;59.272;17.780;2022-09-27T09:57:47;10.90;;;4.20;;
17235;SDS011;8734;59.272;17.780;2022-09-27T10:00:23;6.33;;;3.90;;
17235;SDS011;8734;59.272;17.780;2022-09-27T10:02:53;8.83;;;4.17;;
17235;SDS011;8734;59.272;17.780;2022-09-27T10:05:25;8.37;;;4.00;;
17235;SDS011;8734;59.272;17.780;2022-09-27T10:07:59;10.30;;;4.43;;
17235;SDS011;8734;59.272;17.780;2022-09-27T10:10:31;9.17;;;3.90;;
17235;SDS011;8734;59.272;17.780;2022-09-27T10:13:01;6.83;;;3.93;;
17235;SDS011;8734;59.272;17.780;2022-09-27T10:15:30;8.23;;;4.10;;
17235;SDS011;8734;59.272;17.780;2022-09-27T10:18:00;7.07;;;4.40;;
17235;SDS011;8734;59.272;17.780;2022-09-27T10:20:30;9.93;;;4.20;;
17235;SDS011;8734;59.272;17.780;2022-09-27T10:23:04;11.40;;;5.40;;
17235;SDS011;8734;59.272;17.780;2022-09-27T10:25:46;11.90;;;5.90;;
17235;SDS011;8734;59.272;17.780;2022-09-27T10:28:31;8.70;;;5.33;;
17235;SDS011;8734;59.272;17.780;2022-09-27T10:31:03;7.73;;;5.57;;
17235;SDS011;8734;59.272;17.780;2022-09-27T10:33:33;10.50;;;6.80;;
17235;SDS011;8734;59.272;17.780;2022-09-27T10:36:06;12.30;;;6.43;;
17235;SDS011;8734;59.272;17.780;2022-09-27T10:38:50;9.73;;;6.00;;
17235;SDS011;8734;59.272;17.780;2022-09-27T10:41:24;9.83;;;6.60;;
17235;SDS011;8734;59.272;17.780;2022-09-27T10:43:58;10.33;;;6.57;;
17235;SDS011;8734;59.272;17.780;2022-09-27T10:46:48;11.47;;;6.57;;
17235;SDS011;8734;59.272;17.780;2022-09-27T10:49:19;12.10;;;7.40;;
17235;SDS011;8734;59.272;17.780;2022-09-27T10:51:52;11.90;;;7.17;;
17235;SDS011;8734;59.272;17.780;2022-09-27T10:54:23;10.20;;;6.93;;
17235;SDS011;8734;59.272;17.780;2022-09-27T10:56:57;13.40;;;7.80;;
17235;SDS011;8734;59.272;17.780;2022-09-27T10:59:30;16.50;;;8.57;;
17235;SDS011;8734;59.272;17.780;2022-09-27T11:02:04;16.07;;;8.27;;
17235;SDS011;8734;59.272;17.780;2022-09-27T11:05:00;13.07;;;8.37;;
17235;SDS011;8734;59.272;17.780;2022-09-27T11:07:33;11.40;;;8.13;;
17235;SDS011;8734;59.272;17.780;2022-09-27T11:10:18;17.10;;;9.37;;
17235;SDS011;8734;59.272;17.780;2022-09-27T11:13:09;12.97;;;8.93;;
17235;SDS011;8734;59.272;17.780;2022-09-27T11:15:47;18.13;;;9.30;;
17235;SDS011;8734;59.272;17.780;2022-09-27T11:18:31;15.83;;;9.80;;
17235;SDS011;8734;59.272;17.780;2022-09-27T11:21:13;17.13;;;8.70;;
17235;SDS011;8734;59.272;17.780;2022-09-27T11:24:10;18.60;;;9.67;;
17235;SDS011;8734;59.272;17.780;2022-09-27T11:26:52;17.33;;;9.90;;
17235;SDS011;8734;59.272;17.780;2022-09-27T11:29:38;15.50;;;9.43;;
17235;SDS011;8734;59.272;17.780;2022-09-27T11:32:22;17.87;;;10.57;;
17235;SDS011;8734;59.272;17.780;2022-09-27T11:38:08;19.40;;;11.13;;
17235;SDS011;8734;59.272;17.780;2022-09-27T11:41:15;15.40;;;10.33;;
17235;SDS011;8734;59.272;17.780;2022-09-27T11:44:04;19.70;;;11.43;;
17235;SDS011;8734;59.272;17.780;2022-09-27T11:46:47;23.47;;;10.73;;
17235;SDS011;8734;59.272;17.780;2022-09-27T11:49:27;21.10;;;11.93;;
17235;SDS011;8734;59.272;17.780;2022-09-27T11:52:29;22.73;;;10.50;;
17235;SDS011;8734;59.272;17.780;2022-09-27T11:55:13;17.67;;;10.80;;
17235;SDS011;8734;59.272;17.780;2022-09-27T11:57:49;15.53;;;11.73;;
17235;SDS011;8734;59.272;17.780;2022-09-27T12:00:29;20.57;;;13.17;;
17235;SDS011;8734;59.272;17.780;2022-09-27T12:06:18;24.63;;;13.57;;
17235;SDS011;8734;59.272;17.780;2022-09-27T12:08:55;26.50;;;14.47;;
17235;SDS011;8734;59.272;17.780;2022-09-27T12:11:30;28.03;;;14.17;;
17235;SDS011;8734;59.272;17.780;2022-09-27T12:14:09;22.50;;;15.40;;
17235;SDS011;8734;59.272;17.780;2022-09-27T12:16:44;29.80;;;15.43;;
17235;SDS011;8734;59.272;17.780;2022-09-27T12:19:18;20.40;;;13.70;;
17235;SDS011;8734;59.272;17.780;2022-09-27T12:21:51;21.93;;;14.97;;
17235;SDS011;8734;59.272;17.780;2022-09-27T12:24:22;26.80;;;14.47;;
17235;SDS011;8734;59.272;17.780;2022-09-27T12:26:51;18.70;;;13.80;;
17235;SDS011;8734;59.272;17.780;2022-09-27T12:29:25;20.37;;;13.80;;
17235;SDS011;8734;59.272;17.780;2022-09-27T12:31:58;23.17;;;14.07;;
17235;SDS011;8734;59.272;17.780;2022-09-27T12:34:34;22.33;;;13.17;;
17235;SDS011;8734;59.272;17.780;2022-09-27T12:37:08;23.43;;;13.47;;
17235;SDS011;8734;59.272;17.780;2022-09-27T12:39:44;22.90;;;14.93;;
17235;SDS011;8734;59.272;17.780;2022-09-27T12:42:19;24.20;;;13.23;;
17235;SDS011;8734;59.272;17.780;2022-09-27T12:44:51;23.23;;;14.00;;
17235;SDS011;8734;59.272;17.780;2022-09-27T12:47:26;25.50;;;12.73;;
17235;SDS011;8734;59.272;17.780;2022-09-27T12:50:16;21.13;;;12.60;;
17235;SDS011;8734;59.272;17.780;2022-09-27T12:52:56;24.17;;;13.17;;
17235;SDS011;8734;59.272;17.780;2022-09-27T12:55:34;19.90;;;12.37;;
17235;SDS011;8734;59.272;17.780;2022-09-27T13:01:21;17.87;;;11.70;;
17235;SDS011;8734;59.272;17.780;2022-09-27T13:04:14;17.17;;;11.80;;
17235;SDS011;8734;59.272;17.780;2022-09-27T13:07:03;24.20;;;11.83;;
17235;SDS011;8734;59.272;17.780;2022-09-27T13:12:28;24.63;;;11.77;;
17235;SDS011;8734;59.272;17.780;2022-09-27T13:14:59;17.37;;;11.87;;
17235;SDS011;8734;59.272;17.780;2022-09-27T13:20:31;24.77;;;11.87;;
17235;SDS011;8734;59.272;17.780;2022-09-27T13:26:23;18.33;;;10.60;;
17235;SDS011;8734;59.272;17.780;2022-09-27T13:29:19;17.90;;;11.57;;
17235;SDS011;8734;59.272;17.780;2022-09-27T13:34:46;21.30;;;11.40;;
17235;SDS011;8734;59.272;17.780;2022-09-27T13:37:31;20.43;;;11.63;;
17235;SDS011;8734;59.272;17.780;2022-09-27T13:46:04;20.97;;;11.07;;
17235;SDS011;8734;59.272;17.780;2022-09-27T13:48:43;20.67;;;12.10;;
17235;SDS011;8734;59.272;17.780;2022-09-27T13:51:18;20.30;;;10.63;;
17235;SDS011;8734;59.272;17.780;2022-09-27T13:53:56;20.27;;;11.53;;
17235;SDS011;8734;59.272;17.780;2022-09-27T13:59:19;19.40;;;11.63;;
17235;SDS011;8734;59.272;17.780;2022-09-27T14:01:54;20.67;;;11.13;;
17235;SDS011;8734;59.272;17.780;2022-09-27T14:04:28;22.20;;;11.17;;
17235;SDS011;8734;59.272;17.780;2022-09-27T14:07:01;23.50;;;12.17;;
17235;SDS011;8734;59.272;17.780;2022-09-27T14:09:31;19.00;;;11.80;;
17235;SDS011;8734;59.272;17.780;2022-09-27T14:12:06;16.07;;;11.40;;
17235;SDS011;8734;59.272;17.780;2022-09-27T14:14:37;17.00;;;10.80;;
17235;SDS011;8734;59.272;17.780;2022-09-27T14:17:09;27.50;;;11.47;;
17235;SDS011;8734;59.272;17.780;2022-09-27T14:19:40;21.87;;;10.70;;
17235;SDS011;8734;59.272;17.780;2022-09-27T14:22:10;16.50;;;10.80;;
17235;SDS011;8734;59.272;17.780;2022-09-27T14:24:44;19.50;;;10.80;;
17235;SDS011;8734;59.272;17.780;2022-09-27T14:27:15;21.77;;;11.53;;
17235;SDS011;8734;59.272;17.780;2022-09-27T14:29:46;19.23;;;10.83;;
17235;SDS011;8734;59.272;17.780;2022-09-27T14:32:19;16.03;;;10.43;;
17235;SDS011;8734;59.272;17.780;2022-09-27T14:35:01;16.40;;;10.10;;
17235;SDS011;8734;59.272;17.780;2022-09-27T14:37:56;27.47;;;10.50;;
17235;SDS011;8734;59.272;17.780;2022-09-27T14:40:34;20.20;;;10.37;;
17235;SDS011;8734;59.272;17.780;2022-09-27T14:43:09;15.87;;;9.50;;
17235;SDS011;8734;59.272;17.780;2022-09-27T14:45:46;18.87;;;10.03;;
17235;SDS011;8734;59.272;17.780;2022-09-27T14:48:19;17.10;;;8.90;;
17235;SDS011;8734;59.272;17.780;2022-09-27T14:50:53;22.40;;;8.63;;
17235;SDS011;8734;59.272;17.780;2022-09-27T14:53:32;18.30;;;8.67;;
17235;SDS011;8734;59.272;17.780;2022-09-27T14:56:02;13.73;;;8.87;;
17235;SDS011;8734;59.272;17.780;2022-09-27T14:58:34;18.67;;;9.73;;
17235;SDS011;8734;59.272;17.780;2022-09-27T15:01:13;15.80;;;10.13;;
17235;SDS011;8734;59.272;17.780;2022-09-27T15:03:44;21.37;;;9.87;;
17235;SDS011;8734;59.272;17.780;2022-09-27T15:06:14;18.07;;;10.20;;
17235;SDS011;8734;59.272;17.780;2022-09-27T15:08:48;23.17;;;10.77;;
17235;SDS011;8734;59.272;17.780;2022-09-27T15:11:20;18.43;;;10.60;;
17235;SDS011;8734;59.272;17.780;2022-09-27T15:13:50;15.27;;;10.40;;
17235;SDS011;8734;59.272;17.780;2022-09-27T15:16:21;21.20;;;10.73;;
17235;SDS011;8734;59.272;17.780;2022-09-27T15:18:58;18.83;;;10.90;;
17235;SDS011;8734;59.272;17.780;2022-09-27T15:21:31;15.60;;;10.07;;
17235;SDS011;8734;59.272;17.780;2022-09-27T15:24:01;18.20;;;10.60;;
17235;SDS011;8734;59.272;17.780;2022-09-27T15:26:34;19.10;;;10.57;;
17235;SDS011;8734;59.272;17.780;2022-09-27T15:29:15;21.37;;;11.23;;
17235;SDS011;8734;59.272;17.780;2022-09-27T15:31:55;20.53;;;9.90;;
17235;SDS011;8734;59.272;17.780;2022-09-27T15:34:27;20.43;;;10.43;;
17235;SDS011;8734;59.272;17.780;2022-09-27T15:36:56;15.23;;;10.43;;
17235;SDS011;8734;59.272;17.780;2022-09-27T15:39:26;26.17;;;10.63;;
17235;SDS011;8734;59.272;17.780;2022-09-27T15:42:07;29.60;;;10.67;;
17235;SDS011;8734;59.272;17.780;2022-09-27T15:44:42;20.60;;;10.30;;
17235;SDS011;8734;59.272;17.780;2022-09-27T15:50:35;15.50;;;10.20;;
17235;SDS011;8734;59.272;17.780;2022-09-27T15:53:04;20.57;;;10.90;;
17235;SDS011;8734;59.272;17.780;2022-09-27T15:55:33;23.10;;;10.40;;
17235;SDS011;8734;59.272;17.780;2022-09-27T15:58:06;24.17;;;9.73;;
17235;SDS011;8734;59.272;17.780;2022-09-27T16:00:49;16.57;;;9.67;;